• Join FlightAware (Why Join?)
  • Login
  • US Flag 
10:08AM EDT


 

Airport Tracker/Info


-or-


 

Live Flight TrackerFlight Track Log ✈ ASQ4605 ✈ 06-May-2013 ✈ KCLE - CYYZ

Flight Track Log - Related Links

Times and Time Zones

All times are in EDT time to prevent confusion due to time zone crossing. See the ASQ4605 flight status page for this flight to view local times or setup timezone preferences in your user account.

Time Position Orientation Groundspeed Altitude Reporting Facility
EDT Latitude Longitude Course Direction KTS MPH feet Rate Location/Type
11:30AM 41.5181 -81.7728 23° Northeast 280 322 5,500  Level Cleveland Center
11:32AM 41.6000 -81.6786 18° North  Level FlightAware Approximate
11:32AM 41.6628 -81.6894 18° North 280 322 10,500  Level Cleveland Center
11:33AM 41.7547 -81.6547 16° North 307 353 12,000 1,680 Climbing Cleveland Center
11:34AM 41.8553 -81.6175 15° North 348 400 13,900 1,860 Climbing Cleveland Center
11:35AM 41.9556 -81.5772 17° North 368 423 15,900 1,020 Climbing Cleveland Center
11:37AM 42.1564 -81.4992 16° North 391 450 17,000 360 Climbing Cleveland Center
11:38AM 42.2650 -81.4586 15° North 402 463 17,000  Level Cleveland Center
11:41AM 42.6000 -81.3167 17° North 420 483 17,100  Climbing Toronto Center
11:42AM 42.7167 -81.2667 17° North 420 483 17,100  Level Toronto Center
11:44AM 42.8135 -81.1665 37° Northeast  Level FlightAware Approximate
11:46AM 43.1000 -80.9833 53° Northeast 410 472 17,100  Level Toronto Center
11:47AM 43.1667 -80.8667 52° Northeast 410 472 17,100 -60 Level Toronto Center
11:48AM 43.2500 -80.7333 49° Northeast 410 472 17,000  Descending Toronto Center
11:49AM 43.3167 -80.6167 52° Northeast 380 437 17,100 -360 Climbing Toronto Center
11:51AM 43.3009 -80.6482 55° Northeast  Level FlightAware Approximate
11:51AM 43.4333 -80.3833 55° Northeast 360 414 16,000  Level Toronto Center
11:52AM 43.3520 -80.5493 53° Northeast  Level FlightAware Approximate
11:53AM 43.5000 -80.1667 67° East 300 345 11,200  Level Toronto Center
11:55AM 43.5515 -80.0203 67° East  Level FlightAware Approximate
11:58AM 43.5833 -79.6500 75° East 270 311 8,000  Level Toronto Center
12:01PM 43.6667 -79.6167 75° East  Level FlightAware Approximate
12:01PM 43.6667 -79.4333 75° East 230 265 4,400  Level Toronto Center
12:02PM 43.6667 -79.6167 75° East  Level FlightAware Approximate
12:03PM 43.6772 -79.6306 75° East  Level Estimated
12:03PM 43.6756 -79.5996 274° West  Level Estimated
12:03PM 43.7333 -79.4667 274° West 200 230 2,900  Level Toronto Center
12:04PM 43.6772 -79.6306 75° East  Level Estimated
12:05PM 43.6817 -79.6174 245° Southwest  Level Estimated